createdAt,value
2022-09-15T00:00:00.301Z,0.045
2022-09-15T00:01:00.298Z,0.045
2022-09-15T00:02:00.451Z,0.045
2022-09-15T00:03:00.557Z,0.045
2022-09-15T00:04:00.303Z,0.045
2022-09-15T00:05:00.311Z,0.045
2022-09-15T00:06:00.300Z,0.045
2022-09-15T00:07:00.315Z,0.045
2022-09-15T00:08:00.337Z,0.045
2022-09-15T00:09:00.459Z,0.090
2022-09-15T00:10:00.308Z,0.045
2022-09-15T00:11:00.286Z,0.045
2022-09-15T00:12:00.321Z,0.045
2022-09-15T00:13:00.332Z,0.045
2022-09-15T00:14:00.307Z,0.045
2022-09-15T00:15:00.574Z,0.045
2022-09-15T00:16:00.298Z,0.045
2022-09-15T00:17:00.406Z,0.045
2022-09-15T00:18:00.294Z,0.045
2022-09-15T00:19:00.286Z,0.045
2022-09-15T00:20:00.307Z,0.045
2022-09-15T00:21:00.486Z,0.045
2022-09-15T00:22:00.393Z,0.045
2022-09-15T00:23:00.400Z,0.045
2022-09-15T00:24:00.380Z,0.045
2022-09-15T00:25:00.413Z,0.045
2022-09-15T00:26:00.377Z,0.045
2022-09-15T00:27:00.610Z,0.045
2022-09-15T00:28:00.285Z,0.045
2022-09-15T00:29:00.305Z,0.045
2022-09-15T00:30:00.343Z,0.045
2022-09-15T00:31:00.369Z,0.045
2022-09-15T00:32:00.284Z,0.045
2022-09-15T00:33:00.405Z,0.045
2022-09-15T00:34:00.266Z,0.045
2022-09-15T00:35:00.281Z,0.045
2022-09-15T00:36:00.298Z,0.045
2022-09-15T00:37:00.304Z,0.045
2022-09-15T00:38:00.294Z,0.045
2022-09-15T00:39:00.453Z,0.045
2022-09-15T00:40:00.376Z,0.045
2022-09-15T00:41:00.446Z,0.045
2022-09-15T00:42:00.283Z,0.045
2022-09-15T00:43:00.298Z,0.045
2022-09-15T00:44:00.281Z,0.045
2022-09-15T00:45:00.390Z,0.045
2022-09-15T00:46:00.439Z,0.045
2022-09-15T00:47:18.386Z,0.045
2022-09-15T00:48:00.302Z,0.045
2022-09-15T00:49:00.286Z,0.045
2022-09-15T00:50:00.287Z,0.045
2022-09-15T00:51:00.446Z,0.045
2022-09-15T00:52:00.296Z,0.045
2022-09-15T00:53:00.281Z,0.045
2022-09-15T00:54:00.292Z,0.045
2022-09-15T00:55:00.278Z,0.045
2022-09-15T00:56:00.433Z,0.045
2022-09-15T00:57:00.375Z,0.045
2022-09-15T00:58:00.258Z,0.045
2022-09-15T00:59:00.287Z,0.045
2022-09-15T01:00:00.263Z,0.045
2022-09-15T01:01:00.329Z,0.045
2022-09-15T01:02:00.331Z,0.045
2022-09-15T01:03:00.445Z,0.045
2022-09-15T01:04:00.266Z,0.045
2022-09-15T01:05:00.341Z,0.045
2022-09-15T01:06:00.292Z,0.045
2022-09-15T01:07:00.360Z,0.045
2022-09-15T01:08:00.299Z,0.045
2022-09-15T01:09:00.459Z,0.045
2022-09-15T01:10:00.295Z,0.045
2022-09-15T01:11:00.279Z,0.045
2022-09-15T01:12:00.356Z,0.045
2022-09-15T01:13:00.271Z,0.045
2022-09-15T01:14:00.282Z,0.045
2022-09-15T01:15:00.502Z,0.045
2022-09-15T01:16:00.437Z,0.045
2022-09-15T01:17:00.303Z,0.045
2022-09-15T01:18:00.292Z,0.045
2022-09-15T01:19:00.326Z,0.045
2022-09-15T01:20:00.306Z,0.045
2022-09-15T01:21:00.437Z,0.045
2022-09-15T01:22:00.275Z,0.045
2022-09-15T01:23:00.278Z,0.045
2022-09-15T01:24:00.282Z,0.045
2022-09-15T01:25:00.279Z,0.045
2022-09-15T01:26:00.304Z,0.045
2022-09-15T01:27:06.534Z,0.045
2022-09-15T01:28:00.285Z,0.045
2022-09-15T01:29:00.320Z,0.045
2022-09-15T01:30:00.336Z,0.045
2022-09-15T01:31:00.358Z,0.045
2022-09-15T01:32:00.380Z,0.045
2022-09-15T01:33:00.514Z,0.045
2022-09-15T01:34:00.326Z,0.045
2022-09-15T01:35:00.278Z,0.045
2022-09-15T01:36:00.304Z,0.045
2022-09-15T01:37:00.290Z,0.045
2022-09-15T01:38:00.328Z,0.045
2022-09-15T01:39:00.514Z,0.045
2022-09-15T01:40:00.387Z,0.045
2022-09-15T01:41:00.323Z,0.045
2022-09-15T01:42:00.429Z,0.045
2022-09-15T01:43:00.317Z,0.045
2022-09-15T01:44:00.297Z,0.045
2022-09-15T01:45:00.553Z,0.045
2022-09-15T01:46:00.451Z,0.045
2022-09-15T01:47:00.356Z,0.045
2022-09-15T01:48:00.346Z,0.045
2022-09-15T01:49:00.422Z,0.045
2022-09-15T01:50:00.320Z,0.045
2022-09-15T01:51:00.502Z,0.045
2022-09-15T01:52:00.307Z,0.045
2022-09-15T01:53:00.313Z,0.045
2022-09-15T01:54:00.304Z,0.045
2022-09-15T01:55:00.323Z,0.045
2022-09-15T01:56:00.293Z,0.045
2022-09-15T01:57:00.577Z,0.045
2022-09-15T01:58:00.458Z,0.045
2022-09-15T01:59:00.319Z,0.045
2022-09-15T02:00:00.340Z,0.045
2022-09-15T02:01:00.366Z,0.045
2022-09-15T02:02:00.385Z,0.045
2022-09-15T02:03:00.404Z,0.045
2022-09-15T02:04:00.308Z,0.045
2022-09-15T02:05:00.288Z,0.045
2022-09-15T02:06:00.383Z,0.045
2022-09-15T02:07:00.318Z,0.090
2022-09-15T02:08:00.303Z,0.090
2022-09-15T02:09:00.501Z,0.135
2022-09-15T02:10:00.370Z,0.135
2022-09-15T02:11:00.302Z,0.180
2022-09-15T02:12:00.316Z,0.180
2022-09-15T02:13:00.534Z,0.225
2022-09-15T02:14:00.312Z,0.270
2022-09-15T02:15:00.424Z,0.315
2022-09-15T02:16:00.463Z,0.405
2022-09-15T02:17:00.301Z,0.495
2022-09-15T02:18:00.312Z,0.585
2022-09-15T02:19:00.291Z,0.765
2022-09-15T02:20:00.359Z,0.945
2022-09-15T02:21:00.515Z,1.260
2022-09-15T02:22:00.319Z,1.530
2022-09-15T02:23:00.359Z,1.890
2022-09-15T02:24:00.366Z,2.385
2022-09-15T02:25:00.397Z,2.925
2022-09-15T02:26:00.306Z,3.690
2022-09-15T02:27:00.475Z,4.500
2022-09-15T02:28:00.333Z,5.535
2022-09-15T02:29:00.328Z,6.750
2022-09-15T02:30:00.422Z,8.190
2022-09-15T02:31:00.324Z,9.945
2022-09-15T02:32:04.962Z,11.790
2022-09-15T02:33:00.444Z,14.040
2022-09-15T02:34:00.295Z,16.920
2022-09-15T02:35:00.320Z,19.440
2022-09-15T02:36:00.316Z,22.950
2022-09-15T02:37:00.304Z,26.820
2022-09-15T02:38:00.310Z,31.140
2022-09-15T02:39:00.541Z,35.640
2022-09-15T02:40:00.541Z,40.500
2022-09-15T02:41:00.312Z,46.080
2022-09-15T02:42:00.371Z,51.480
2022-09-15T02:43:00.330Z,57.960
2022-09-15T02:44:00.458Z,63.360
2022-09-15T02:45:00.484Z,70.560
2022-09-15T02:46:00.429Z,77.760
2022-09-15T02:47:00.399Z,88.560
2022-09-15T02:48:00.298Z,94.320
2022-09-15T02:49:00.294Z,102.960
2022-09-15T02:50:00.320Z,111.600
2022-09-15T02:51:00.404Z,120.240
2022-09-15T02:52:00.289Z,129.600
2022-09-15T02:53:00.310Z,138.960
2022-09-15T02:54:00.293Z,148.320
2022-09-15T02:55:00.318Z,160.560
2022-09-15T02:56:00.299Z,170.640
2022-09-15T02:57:00.432Z,180.000
2022-09-15T02:58:00.311Z,190.080
2022-09-15T02:59:00.335Z,201.600
2022-09-15T03:00:00.457Z,214.560
2022-09-15T03:01:00.352Z,226.080
2022-09-15T03:02:00.354Z,239.040
2022-09-15T03:03:00.377Z,253.440
2022-09-15T03:04:00.295Z,293.760
2022-09-15T03:05:00.314Z,342.720
2022-09-15T03:06:00.282Z,371.520
2022-09-15T03:07:00.287Z,406.080
2022-09-15T03:08:00.308Z,432.000
2022-09-15T03:09:00.438Z,452.160
2022-09-15T03:10:00.323Z,475.200
2022-09-15T03:11:00.298Z,498.240
2022-09-15T03:12:00.312Z,527.040
2022-09-15T03:13:00.343Z,544.320
2022-09-15T03:14:00.343Z,570.240
2022-09-15T03:15:00.585Z,596.160
2022-09-15T03:16:00.346Z,619.200
2022-09-15T03:17:00.306Z,642.240
2022-09-15T03:18:00.330Z,671.040
2022-09-15T03:19:00.393Z,694.080
2022-09-15T03:20:00.348Z,714.240
2022-09-15T03:21:00.550Z,728.640
2022-09-15T03:22:00.307Z,748.800
2022-09-15T03:23:00.310Z,777.600
2022-09-15T03:24:00.316Z,806.400
2022-09-15T03:25:00.285Z,829.440
2022-09-15T03:26:00.302Z,864.000
2022-09-15T03:27:00.408Z,875.520
2022-09-15T03:28:00.296Z,898.560
2022-09-15T03:29:00.283Z,915.840
2022-09-15T03:30:00.379Z,927.360
2022-09-15T03:31:00.313Z,956.160
2022-09-15T03:32:00.398Z,979.200
2022-09-15T03:33:00.479Z,1002.240
2022-09-15T03:34:00.303Z,1100.160
2022-09-15T03:35:00.300Z,1094.400
2022-09-15T03:36:00.312Z,1117.440
2022-09-15T03:37:00.305Z,1128.960
2022-09-15T03:38:00.312Z,1140.480
2022-09-15T03:39:00.447Z,1157.760
2022-09-15T03:40:00.429Z,1175.040
2022-09-15T03:41:00.325Z,1186.560
2022-09-15T03:42:00.342Z,1198.080
2022-09-15T03:43:00.347Z,1203.840
2022-09-15T03:44:00.313Z,1203.840
2022-09-15T03:45:00.525Z,1221.120
2022-09-15T03:46:00.398Z,1209.600
2022-09-15T03:47:00.372Z,1215.360
2022-09-15T03:48:00.313Z,1232.640
2022-09-15T03:49:00.320Z,1232.640
2022-09-15T03:50:00.354Z,1238.400
2022-09-15T03:51:00.554Z,1244.160
2022-09-15T03:52:00.342Z,1255.680
2022-09-15T03:53:00.366Z,1255.680
2022-09-15T03:54:00.302Z,1278.720
2022-09-15T03:55:00.325Z,1284.480
2022-09-15T03:56:00.280Z,1296.000
2022-09-15T03:57:00.438Z,1313.280
2022-09-15T03:58:00.312Z,1330.560
2022-09-15T03:59:00.296Z,1342.080
2022-09-15T04:00:00.411Z,1347.840
2022-09-15T04:01:00.480Z,1370.880
2022-09-15T04:02:00.438Z,1399.680
2022-09-15T04:03:00.529Z,1416.960
2022-09-15T04:04:00.311Z,1416.960
2022-09-15T04:05:00.314Z,1428.480
2022-09-15T04:06:00.298Z,1457.280
2022-09-15T04:07:00.314Z,1428.480
2022-09-15T04:08:00.302Z,1486.080
2022-09-15T04:09:00.422Z,1463.040
2022-09-15T04:10:00.406Z,1520.640
2022-09-15T04:11:00.285Z,1566.720
2022-09-15T04:12:00.299Z,1543.680
2022-09-15T04:13:00.307Z,1497.600
2022-09-15T04:14:00.337Z,1497.600
2022-09-15T04:15:00.497Z,1497.600
2022-09-15T04:16:00.587Z,1497.600
2022-09-15T04:17:00.383Z,1532.160
2022-09-15T04:18:00.332Z,1532.160
2022-09-15T04:19:00.290Z,1509.120
2022-09-15T04:20:00.375Z,1520.640
2022-09-15T04:21:00.448Z,1532.160
2022-09-15T04:22:00.294Z,1566.720
2022-09-15T04:23:00.286Z,1543.680
2022-09-15T04:24:00.310Z,1555.200
2022-09-15T04:25:00.300Z,1543.680
2022-09-15T04:26:00.300Z,1601.280
2022-09-15T04:27:00.531Z,1555.200
2022-09-15T04:28:00.303Z,1578.240
2022-09-15T04:29:03.886Z,1589.760
2022-09-15T04:30:00.302Z,1578.240
2022-09-15T04:31:00.531Z,1578.240
2022-09-15T04:32:00.466Z,1589.760
2022-09-15T04:33:00.541Z,1601.280
2022-09-15T04:34:00.322Z,1589.760
2022-09-15T04:35:00.312Z,1589.760
2022-09-15T04:36:00.312Z,1612.800
2022-09-15T04:37:00.308Z,1578.240
2022-09-15T04:38:00.292Z,1578.240
2022-09-15T04:39:00.529Z,1589.760
2022-09-15T04:40:00.430Z,1589.760
2022-09-15T04:41:00.295Z,1589.760
2022-09-15T04:42:00.375Z,1601.280
2022-09-15T04:43:00.360Z,1509.120
2022-09-15T04:44:00.779Z,1601.280
2022-09-15T04:45:00.362Z,1624.320
2022-09-15T04:46:00.369Z,1578.240
2022-09-15T04:47:00.670Z,1601.280
2022-09-15T04:48:00.342Z,1566.720
2022-09-15T04:49:00.372Z,1612.800
2022-09-15T04:50:00.463Z,1624.320
2022-09-15T04:51:00.296Z,1739.520
2022-09-15T04:52:00.285Z,1681.920
2022-09-15T04:53:00.311Z,1658.880
2022-09-15T04:54:00.280Z,1681.920
2022-09-15T04:55:00.298Z,1751.040
2022-09-15T04:56:00.467Z,1831.680
2022-09-15T04:57:00.355Z,1808.640
2022-09-15T04:58:00.316Z,1889.280
2022-09-15T04:59:03.955Z,1969.920
2022-09-15T05:00:00.329Z,2108.160
2022-09-15T05:01:00.360Z,2027.520
2022-09-15T05:02:00.591Z,2373.120
2022-09-15T05:03:00.318Z,2453.760
2022-09-15T05:04:00.320Z,2257.920
2022-09-15T05:05:00.284Z,2396.160
2022-09-15T05:06:00.295Z,2626.560
2022-09-15T05:07:00.302Z,2810.880
2022-09-15T05:08:00.428Z,2488.320
2022-09-15T05:09:00.321Z,2407.680
2022-09-15T05:10:00.337Z,2315.520
2022-09-15T05:11:00.298Z,2350.080
2022-09-15T05:12:00.308Z,2419.200
2022-09-15T05:13:00.368Z,2396.160
2022-09-15T05:14:00.542Z,2465.280
2022-09-15T05:15:00.309Z,2361.600
2022-09-15T05:16:00.523Z,2903.040
2022-09-15T05:17:00.541Z,2568.960
2022-09-15T05:18:00.502Z,2280.960
2022-09-15T05:19:00.301Z,2903.040
2022-09-15T05:20:00.452Z,2223.360
2022-09-15T05:21:00.299Z,2407.680
2022-09-15T05:22:00.302Z,2534.400
2022-09-15T05:23:00.744Z,2499.840
2022-09-15T05:24:00.318Z,2949.120
2022-09-15T05:25:00.319Z,2384.640
2022-09-15T05:26:00.447Z,2453.760
2022-09-15T05:27:00.311Z,2592.000
2022-09-15T05:28:00.318Z,2131.200
2022-09-15T05:29:00.300Z,6220.800
2022-09-15T05:30:16.211Z,2545.920
2022-09-15T05:31:00.406Z,2568.960
2022-09-15T05:32:00.627Z,12810.240
2022-09-15T05:33:00.475Z,2407.680
2022-09-15T05:34:00.369Z,2972.160
2022-09-15T05:35:00.312Z,2799.360
2022-09-15T05:36:00.310Z,2407.680
2022-09-15T05:37:00.302Z,2592.000
2022-09-15T05:38:00.507Z,2661.120
2022-09-15T05:39:00.301Z,2488.320
2022-09-15T05:40:00.563Z,2269.440
2022-09-15T05:41:00.298Z,2499.840
2022-09-15T05:42:00.298Z,2856.960
2022-09-15T05:43:00.280Z,2580.480
2022-09-15T05:44:00.422Z,2764.800
2022-09-15T05:45:00.309Z,2741.760
2022-09-15T05:46:00.309Z,2753.280
2022-09-15T05:47:00.368Z,3133.440
2022-09-15T05:48:00.605Z,2568.960
2022-09-15T05:49:00.519Z,8386.560
2022-09-15T05:50:00.404Z,7925.760
2022-09-15T05:51:00.371Z,2396.160
2022-09-15T05:52:00.357Z,3018.240
2022-09-15T05:53:00.279Z,2580.480
2022-09-15T05:54:00.304Z,2626.560
2022-09-15T05:55:00.356Z,2707.200
2022-09-15T05:56:00.491Z,14284.800
2022-09-15T05:57:00.310Z,12165.120
2022-09-15T05:58:00.308Z,3456.000
2022-09-15T05:59:00.300Z,2545.920
2022-09-15T06:00:00.291Z,2856.960
2022-09-15T06:01:00.315Z,2661.120
2022-09-15T06:02:00.556Z,3271.680
2022-09-15T06:03:00.359Z,2718.720
2022-09-15T06:04:00.389Z,2856.960
2022-09-15T06:05:00.392Z,2465.280
2022-09-15T06:06:00.316Z,2776.320
2022-09-15T06:07:00.284Z,3271.680
2022-09-15T06:08:00.519Z,5299.200
2022-09-15T06:09:00.864Z,2753.280
2022-09-15T06:10:00.303Z,2626.560
2022-09-15T06:11:00.304Z,4262.400
2022-09-15T06:12:00.296Z,16035.840
2022-09-15T06:13:00.310Z,2649.600
2022-09-15T06:14:00.468Z,2684.160
2022-09-15T06:15:00.355Z,8478.720
2022-09-15T06:16:00.432Z,2684.160
2022-09-15T06:17:00.325Z,2695.680
2022-09-15T06:18:00.283Z,2649.600
2022-09-15T06:19:00.396Z,2684.160
2022-09-15T06:20:00.583Z,15022.080
2022-09-15T06:21:00.457Z,2707.200
2022-09-15T06:22:00.301Z,2568.960
2022-09-15T06:23:00.313Z,2972.160
2022-09-15T06:24:00.409Z,2753.280
2022-09-15T06:25:00.329Z,15206.400
2022-09-15T06:26:00.523Z,2764.800
2022-09-15T06:27:00.399Z,3041.280
2022-09-15T06:28:00.352Z,2718.720
2022-09-15T06:29:00.320Z,2833.920
2022-09-15T06:30:00.297Z,16773.119
2022-09-15T06:31:00.291Z,2810.880
2022-09-15T06:32:00.527Z,2972.160
2022-09-15T06:33:00.317Z,13086.720
2022-09-15T06:34:00.299Z,17326.080
2022-09-15T06:35:00.298Z,17326.080
2022-09-15T06:36:00.503Z,17326.080
2022-09-15T06:37:00.312Z,17326.080
2022-09-15T06:38:00.380Z,17510.400
2022-09-15T06:39:00.323Z,17510.400
2022-09-15T06:40:00.438Z,17602.561
2022-09-15T06:41:00.319Z,17418.240
2022-09-15T06:42:03.237Z,17510.400
2022-09-15T06:43:00.346Z,17602.561
2022-09-15T06:44:00.530Z,17694.721
2022-09-15T06:45:00.317Z,17694.721
2022-09-15T06:46:00.355Z,17694.721
2022-09-15T06:47:00.288Z,17786.881
2022-09-15T06:48:22.840Z,17786.881
2022-09-15T06:49:00.305Z,17786.881
2022-09-15T06:50:00.432Z,17879.039
2022-09-15T06:51:00.396Z,17971.199
2022-09-15T06:52:00.303Z,18063.359
2022-09-15T06:53:00.305Z,18063.359
2022-09-15T06:54:00.322Z,18155.520
2022-09-15T06:55:00.287Z,18155.520
2022-09-15T06:56:00.529Z,18247.680
2022-09-15T06:57:00.310Z,18432.000
2022-09-15T06:58:00.306Z,18432.000
2022-09-15T06:59:00.309Z,18616.320
2022-09-15T07:00:00.321Z,18616.320
2022-09-15T07:01:00.295Z,18616.320
2022-09-15T07:02:05.042Z,18616.320
2022-09-15T07:03:00.428Z,18800.641
2022-09-15T07:04:00.339Z,18800.641
2022-09-15T07:05:00.316Z,18892.801
2022-09-15T07:06:00.416Z,18984.961
2022-09-15T07:07:00.313Z,19077.119
2022-09-15T07:08:00.394Z,19169.279
2022-09-15T07:09:00.301Z,19077.119
2022-09-15T07:10:00.301Z,19261.439
2022-09-15T07:11:00.338Z,19169.279
2022-09-15T07:12:00.425Z,19261.439
2022-09-15T07:13:00.399Z,19261.439
2022-09-15T07:14:00.355Z,19169.279
2022-09-15T07:15:00.334Z,19261.439
2022-09-15T07:16:00.561Z,19353.600
2022-09-15T07:17:00.306Z,19445.760
2022-09-15T07:18:00.304Z,19353.600
2022-09-15T07:19:00.314Z,19353.600
2022-09-15T07:20:00.402Z,19537.920
2022-09-15T07:21:00.409Z,19630.080
2022-09-15T07:22:00.349Z,19722.240
2022-09-15T07:23:00.322Z,19722.240
2022-09-15T07:24:04.993Z,19722.240
2022-09-15T07:25:00.327Z,19814.400
2022-09-15T07:26:00.387Z,19906.561
2022-09-15T07:27:00.288Z,19998.721
2022-09-15T07:28:00.292Z,19998.721
2022-09-15T07:29:00.304Z,19998.721
2022-09-15T07:30:00.306Z,20090.881
2022-09-15T07:31:00.302Z,20183.039
2022-09-15T07:32:00.458Z,20275.199
2022-09-15T07:33:00.302Z,20275.199
2022-09-15T07:34:00.332Z,20367.359
2022-09-15T07:35:00.317Z,20459.520
2022-09-15T07:36:00.467Z,20551.680
2022-09-15T07:37:00.302Z,20551.680
2022-09-15T07:38:00.440Z,20551.680
2022-09-15T07:39:00.367Z,20551.680
2022-09-15T07:40:00.466Z,20643.840
2022-09-15T07:41:00.365Z,20643.840
2022-09-15T07:42:00.475Z,20736.000
2022-09-15T07:43:00.361Z,20828.160
2022-09-15T07:44:00.480Z,20920.320
2022-09-15T07:45:00.335Z,20920.320
2022-09-15T07:46:00.377Z,21012.480
2022-09-15T07:47:00.301Z,21012.480
2022-09-15T07:48:00.407Z,21104.641
2022-09-15T07:49:00.315Z,21104.641
2022-09-15T07:50:00.305Z,21104.641
2022-09-15T07:51:00.323Z,21288.961
2022-09-15T07:52:00.306Z,21196.801
2022-09-15T07:53:00.333Z,21288.961
2022-09-15T07:54:00.508Z,21288.961
2022-09-15T07:55:00.308Z,21196.801
2022-09-15T07:56:00.342Z,21288.961
2022-09-15T07:57:00.462Z,21288.961
2022-09-15T07:58:00.308Z,21381.119
2022-09-15T07:59:00.497Z,21473.279
2022-09-15T08:00:00.320Z,21473.279
2022-09-15T08:01:00.336Z,21565.439
2022-09-15T08:02:00.412Z,21565.439
2022-09-15T08:03:00.309Z,21565.439
2022-09-15T08:04:00.331Z,21565.439
2022-09-15T08:05:00.500Z,21657.600
2022-09-15T08:06:00.311Z,21473.279
2022-09-15T08:07:00.332Z,21657.600
2022-09-15T08:08:00.388Z,21657.600
2022-09-15T08:09:01.152Z,21749.760
2022-09-15T08:10:00.390Z,21749.760
2022-09-15T08:11:00.488Z,21841.920
2022-09-15T08:12:00.352Z,21841.920
2022-09-15T08:13:00.302Z,21934.080
2022-09-15T08:14:00.401Z,21934.080
2022-09-15T08:15:00.331Z,22118.400
2022-09-15T08:16:00.397Z,22118.400
2022-09-15T08:17:00.467Z,22210.561
2022-09-15T08:18:00.360Z,22302.721
2022-09-15T08:19:00.372Z,22302.721
2022-09-15T08:20:00.341Z,22302.721
2022-09-15T08:21:00.302Z,22302.721
2022-09-15T08:22:00.296Z,22210.561
2022-09-15T08:23:00.514Z,22394.881
2022-09-15T08:24:00.293Z,22302.721
2022-09-15T08:25:00.307Z,22394.881
2022-09-15T08:26:00.318Z,22394.881
2022-09-15T08:27:00.396Z,22394.881
2022-09-15T08:28:00.358Z,22394.881
2022-09-15T08:29:00.427Z,22394.881
2022-09-15T08:30:00.523Z,22487.039
2022-09-15T08:31:00.333Z,22579.199
2022-09-15T08:32:00.283Z,22487.039
2022-09-15T08:33:00.309Z,22487.039
2022-09-15T08:34:00.277Z,22487.039
2022-09-15T08:35:00.448Z,22579.199
2022-09-15T08:36:00.321Z,22487.039
2022-09-15T08:37:00.305Z,22394.881
2022-09-15T08:38:00.305Z,22487.039
2022-09-15T08:39:00.281Z,22579.199
2022-09-15T08:40:00.447Z,22763.520
2022-09-15T08:41:00.481Z,22763.520
2022-09-15T08:42:00.439Z,22855.680
2022-09-15T08:43:00.466Z,22855.680
2022-09-15T08:44:00.334Z,22855.680
2022-09-15T08:45:00.305Z,22855.680
2022-09-15T08:46:00.336Z,22947.840
2022-09-15T08:47:00.424Z,22855.680
2022-09-15T08:48:00.320Z,22671.359
2022-09-15T08:49:02.930Z,22579.199
2022-09-15T08:50:00.307Z,22671.359
2022-09-15T08:51:00.286Z,22671.359
2022-09-15T08:52:00.322Z,22763.520
2022-09-15T08:53:00.435Z,22671.359
2022-09-15T08:54:00.336Z,22579.199
2022-09-15T08:55:00.406Z,22671.359
2022-09-15T08:56:00.345Z,22579.199
2022-09-15T08:57:00.308Z,22579.199
2022-09-15T08:58:00.687Z,22394.881
2022-09-15T08:59:00.543Z,22394.881
2022-09-15T09:00:00.391Z,22487.039
2022-09-15T09:01:00.296Z,22394.881
2022-09-15T09:02:00.398Z,22394.881
2022-09-15T09:03:00.341Z,22394.881
2022-09-15T09:04:00.286Z,22394.881
2022-09-15T09:05:00.455Z,22579.199
2022-09-15T09:06:00.297Z,22487.039
2022-09-15T09:07:00.285Z,22487.039
2022-09-15T09:08:00.309Z,21934.080
2022-09-15T09:09:00.317Z,22394.881
2022-09-15T09:10:00.316Z,22026.240
2022-09-15T09:11:00.592Z,20736.000
2022-09-15T09:12:00.289Z,20643.840
2022-09-15T09:13:00.317Z,19998.721
2022-09-15T09:14:00.534Z,18616.320
2022-09-15T09:15:00.316Z,19630.080
2022-09-15T09:16:00.346Z,20459.520
2022-09-15T09:17:00.430Z,22210.561
2022-09-15T09:18:00.347Z,22487.039
2022-09-15T09:19:00.360Z,22579.199
2022-09-15T09:20:00.311Z,22394.881
2022-09-15T09:21:00.295Z,22302.721
2022-09-15T09:22:00.319Z,22394.881
2022-09-15T09:23:00.436Z,22394.881
2022-09-15T09:24:00.293Z,22302.721
2022-09-15T09:25:08.463Z,22302.721
2022-09-15T09:26:00.451Z,22302.721
2022-09-15T09:27:00.573Z,22302.721
2022-09-15T09:28:00.622Z,22210.561
2022-09-15T09:29:00.813Z,22026.240
2022-09-15T09:30:00.484Z,22118.400
2022-09-15T09:31:00.579Z,22118.400
2022-09-15T09:32:00.442Z,21565.439
2022-09-15T09:33:00.521Z,21934.080
2022-09-15T09:34:00.455Z,21934.080
2022-09-15T09:35:00.802Z,22026.240
2022-09-15T09:36:00.339Z,21841.920
2022-09-15T09:37:00.327Z,21381.119
2022-09-15T09:38:00.433Z,21565.439
2022-09-15T09:39:00.454Z,21565.439
2022-09-15T09:40:00.738Z,21473.279
2022-09-15T09:41:02.559Z,21381.119
2022-09-15T09:42:00.320Z,21288.961
2022-09-15T09:43:00.358Z,21012.480
2022-09-15T09:44:00.440Z,21104.641
2022-09-15T09:45:00.294Z,21012.480
2022-09-15T09:46:00.359Z,20920.320
2022-09-15T09:47:00.428Z,20736.000
2022-09-15T09:48:01.810Z,20459.520
2022-09-15T09:49:00.354Z,20090.881
2022-09-15T09:50:00.301Z,19998.721
2022-09-15T09:51:00.475Z,19537.920
2022-09-15T09:52:00.318Z,19630.080
2022-09-15T09:53:00.508Z,19261.439
2022-09-15T09:54:00.302Z,18892.801
2022-09-15T09:55:00.287Z,18524.160
2022-09-15T09:56:00.294Z,18155.520
2022-09-15T09:57:00.303Z,16865.279
2022-09-15T09:58:00.293Z,16865.279
2022-09-15T09:59:00.498Z,16312.320
2022-09-15T10:00:00.310Z,16312.320
2022-09-15T10:01:00.325Z,16035.840
2022-09-15T10:02:00.297Z,14284.800
2022-09-15T10:03:00.313Z,14284.800
2022-09-15T10:04:00.288Z,14192.640
2022-09-15T10:05:00.495Z,14561.280
2022-09-15T10:06:00.360Z,14561.280
2022-09-15T10:07:00.321Z,13824.000
2022-09-15T10:08:00.375Z,13547.520
2022-09-15T10:09:00.330Z,13271.040
2022-09-15T10:10:00.356Z,12902.400
2022-09-15T10:11:00.548Z,12165.120
2022-09-15T10:12:00.298Z,12072.960
2022-09-15T10:13:00.362Z,11704.320
2022-09-15T10:14:00.508Z,10920.960
2022-09-15T10:15:00.549Z,10736.640
2022-09-15T10:16:00.284Z,10368.000
2022-09-15T10:17:00.620Z,9999.360
2022-09-15T10:18:00.340Z,9722.880
2022-09-15T10:19:00.296Z,9308.160
2022-09-15T10:20:00.283Z,8801.280
2022-09-15T10:21:00.288Z,8340.480
2022-09-15T10:22:00.305Z,8110.080
2022-09-15T10:23:00.400Z,7741.440
2022-09-15T10:24:00.292Z,7326.720
2022-09-15T10:25:00.313Z,5990.400
2022-09-15T10:26:00.589Z,6036.480
2022-09-15T10:27:00.296Z,5898.240
2022-09-15T10:28:00.391Z,5760.000
2022-09-15T10:29:00.548Z,5552.640
2022-09-15T10:30:00.450Z,5184.000
2022-09-15T10:31:00.321Z,4884.480
2022-09-15T10:32:00.370Z,4584.960
2022-09-15T10:33:00.304Z,4285.440
2022-09-15T10:34:00.295Z,4008.960
2022-09-15T10:35:00.428Z,3778.560
2022-09-15T10:36:00.271Z,3571.200
2022-09-15T10:37:00.296Z,3409.920
2022-09-15T10:38:00.308Z,3294.720
2022-09-15T10:39:00.296Z,3179.520
2022-09-15T10:40:00.384Z,3087.360
2022-09-15T10:41:00.512Z,3018.240
2022-09-15T10:42:00.284Z,2972.160
2022-09-15T10:43:00.315Z,2949.120
2022-09-15T10:44:00.325Z,2914.560
2022-09-15T10:45:00.328Z,2891.520
2022-09-15T10:46:00.700Z,2891.520
2022-09-15T10:47:00.419Z,2856.960
2022-09-15T10:48:00.326Z,2845.440
2022-09-15T10:49:00.394Z,2810.880
2022-09-15T10:50:00.313Z,2799.360
2022-09-15T10:51:00.309Z,2787.840
2022-09-15T10:52:00.443Z,2764.800
2022-09-15T10:53:00.497Z,2753.280
2022-09-15T10:54:00.533Z,2764.800
2022-09-15T10:55:00.306Z,2753.280
2022-09-15T10:56:00.357Z,2741.760
2022-09-15T10:57:00.286Z,2730.240
2022-09-15T10:58:00.502Z,2730.240
2022-09-15T10:59:00.281Z,2707.200
2022-09-15T11:00:00.278Z,2695.680
2022-09-15T11:01:00.521Z,2672.640
2022-09-15T11:02:00.458Z,2672.640
2022-09-15T11:03:00.298Z,2672.640
2022-09-15T11:04:00.433Z,2672.640
2022-09-15T11:05:00.306Z,2672.640
2022-09-15T11:06:00.483Z,2638.080
2022-09-15T11:07:00.634Z,2522.880
2022-09-15T11:08:00.319Z,2568.960
2022-09-15T11:09:00.494Z,2580.480
2022-09-15T11:10:00.964Z,2534.400
2022-09-15T11:11:00.432Z,2522.880
2022-09-15T11:12:00.432Z,2373.120
2022-09-15T11:13:00.408Z,2476.800
2022-09-15T11:14:00.391Z,2511.360
2022-09-15T11:15:00.308Z,2684.160
2022-09-15T11:16:00.604Z,2672.640
2022-09-15T11:17:00.252Z,2649.600
2022-09-15T11:18:00.494Z,2603.520
2022-09-15T11:19:00.280Z,2568.960
2022-09-15T11:20:00.267Z,2545.920
2022-09-15T11:21:00.256Z,2522.880
2022-09-15T11:22:00.380Z,2511.360
2022-09-15T11:23:00.256Z,2488.320
2022-09-15T11:24:00.266Z,2476.800
2022-09-15T11:25:00.282Z,2465.280
2022-09-15T11:26:00.275Z,2453.760
2022-09-15T11:27:00.260Z,2442.240
2022-09-15T11:28:00.404Z,2430.720
2022-09-15T11:29:00.259Z,2430.720
2022-09-15T11:30:00.239Z,2419.200
2022-09-15T11:31:00.329Z,2407.680
2022-09-15T11:32:00.392Z,2407.680
2022-09-15T11:33:00.285Z,2396.160
2022-09-15T11:34:00.485Z,2384.640
2022-09-15T11:35:00.346Z,2373.120
2022-09-15T11:36:00.333Z,2361.600
2022-09-15T11:37:00.273Z,2350.080
2022-09-15T11:38:00.309Z,2338.560
2022-09-15T11:39:00.321Z,2338.560
2022-09-15T11:40:00.577Z,2315.520
2022-09-15T11:41:00.336Z,2327.040
2022-09-15T11:42:00.298Z,2292.480
2022-09-15T11:43:00.277Z,2292.480
2022-09-15T11:44:00.285Z,2280.960
2022-09-15T11:45:00.287Z,2280.960
2022-09-15T11:46:00.530Z,2280.960
2022-09-15T11:47:00.309Z,2269.440
2022-09-15T11:48:00.297Z,2269.440
2022-09-15T11:49:00.436Z,2257.920
2022-09-15T11:50:00.295Z,2269.440
2022-09-15T11:51:00.293Z,2246.400
2022-09-15T11:52:00.463Z,2234.880
2022-09-15T11:53:00.316Z,2223.360